Silver Lake, South Dakota
Current Conditions -  °F | °C
As of 12:53 AM on Sunday 26 Oct 2014 (Local Time) from KMHE Reporting Station
Clear Clear  
Wind Chill: 40°   Ceiling: Unl
Heat Index: 44°   Visibility: 10mi
Dew Point: 35°   Wind: 7mph
Humidity: 71%   Direction: 130°SE
Pressure: 29.98"   Gusts: NA
Location:  43.5669°N, 97.5001°W
Report Text: KMHE 260553Z AUTO 13006KT 10SM CLR 07/02 A2998 RMK AO2 SLP155 T00670017 10144 20056 402060050 58017 $
Loading
Personal Weather Stations






























Interactive Weather Map
Tropical Storm Tracking
New forecast layout! Learn more

10-Day Weather Forecast

Advertisements
Track Severe Weather on mobile